Time;durP1;ratioP1;P1;durP2;ratioP2;P2;SDS_P1;SDS_P2;PMS_P1;PMS_P2;Temp;Humidity;BMP_temperature;BMP_pressure;BME280_temperature;BME280_humidity;BME280_pressure;Samples;Min_cycle;Max_cycle;Signal;HPM_P1;HPM_P2
2021/06/09 00:02:08;;;;;;;21.73;12.55;;;;;;;16.29;83.20;99177.25;6124403;23;20026;-82
2021/06/09 00:04:34;;;;;;;13.73;11.20;;;;;;;16.17;83.69;99184.31;6124068;23;20014;-82
2021/06/09 00:07:00;;;;;;;16.02;12.38;;;;;;;16.02;84.24;99177.06;6121892;23;20032;-81
2021/06/09 00:09:26;;;;;;;14.77;12.10;;;;;;;16.07;84.06;99188.22;6121606;23;20045;-79
2021/06/09 00:11:52;;;;;;;17.95;12.82;;;;;;;16.07;84.26;99185.47;6097268;23;20361;-79
2021/06/09 00:14:18;;;;;;;14.90;12.77;;;;;;;16.12;84.06;99183.03;6123585;23;20017;-81
2021/06/09 00:16:45;;;;;;;19.20;12.82;;;;;;;16.19;83.79;99182.22;6123359;23;20029;-82
2021/06/09 00:19:13;;;;;;;16.55;12.43;;;;;;;16.26;83.72;99188.56;6121544;23;20045;-81
2021/06/09 00:21:40;;;;;;;20.35;13.30;;;;;;;16.34;83.42;99185.66;6120519;23;20025;-81
2021/06/09 00:24:07;;;;;;;18.13;13.13;;;;;;;16.37;83.43;99188.00;6145750;23;20108;-81
2021/06/09 00:26:33;;;;;;;19.20;13.60;;;;;;;16.43;83.32;99189.94;6122938;23;20026;-81
2021/06/09 00:29:08;;;;;;;16.73;13.52;;;;;;;16.49;83.07;99191.00;6123791;23;20018;-79
2021/06/09 00:31:34;;;;;;;17.35;14.35;;;;;;;16.53;83.06;99187.69;6121244;23;20097;-80
2021/06/09 00:34:00;;;;;;;16.08;13.45;;;;;;;16.54;82.92;99181.19;6121084;23;20092;-80
2021/06/09 00:36:25;;;;;;;17.48;13.75;;;;;;;16.57;83.05;99182.69;6122882;23;20334;-80
2021/06/09 00:38:51;;;;;;;16.40;14.52;;;;;;;16.63;82.82;99182.69;6122548;23;20025;-82
2021/06/09 00:41:17;;;;;;;20.67;14.48;;;;;;;16.67;82.70;99185.84;6123179;23;20439;-81
2021/06/09 00:43:43;;;;;;;19.05;14.95;;;;;;;16.69;82.78;99185.69;6122688;23;20374;-79
2021/06/09 00:46:10;;;;;;;18.17;15.35;;;;;;;16.74;82.49;99191.38;6120770;23;20409;-82
2021/06/09 00:48:40;;;;;;;20.23;15.60;;;;;;;16.73;82.40;99192.41;6122197;23;20026;-80
2021/06/09 00:51:13;;;;;;;18.80;14.73;;;;;;;16.76;82.35;99186.59;6096630;23;20065;-80
2021/06/09 00:53:48;;;;;;;18.55;14.73;;;;;;;16.76;82.46;99186.59;6121123;23;20057;-79
2021/06/09 00:56:16;;;;;;;18.67;13.82;;;;;;;16.75;82.55;99184.91;6145764;23;20030;-82
2021/06/09 00:58:43;;;;;;;17.65;13.68;;;;;;;16.79;82.23;99181.56;6120941;23;20022;-82
2021/06/09 01:01:10;;;;;;;15.93;12.75;;;;;;;16.67;82.37;99176.84;6145906;23;20045;-82
2021/06/09 01:03:37;;;;;;;15.88;13.60;;;;;;;16.69;82.79;99186.50;6120379;23;20105;-81
2021/06/09 01:06:04;;;;;;;17.25;13.02;;;;;;;16.75;82.66;99187.63;6122381;23;20022;-79
2021/06/09 01:08:34;;;;;;;15.98;12.85;;;;;;;16.76;82.45;99178.41;6122044;23;20017;-82
2021/06/09 01:11:00;;;;;;;16.05;12.70;;;;;;;16.82;82.45;99183.06;6120316;23;20105;-81
2021/06/09 01:13:27;;;;;;;15.63;13.20;;;;;;;16.80;82.60;99175.03;6120617;23;20101;-80
2021/06/09 01:15:53;;;;;;;15.20;13.35;;;;;;;16.77;82.85;99177.34;6120612;23;20070;-79
2021/06/09 01:18:19;;;;;;;15.25;13.57;;;;;;;16.72;82.73;99179.81;6121567;23;20068;-80
2021/06/09 01:20:46;;;;;;;17.38;14.18;;;;;;;16.78;82.74;99184.47;6121936;23;20022;-79
2021/06/09 01:23:12;;;;;;;15.20;13.15;;;;;;;16.75;82.84;99182.19;6122452;23;20026;-80
2021/06/09 01:25:39;;;;;;;16.65;14.80;;;;;;;16.75;82.78;99191.22;6096927;23;20121;-81
2021/06/09 01:28:05;;;;;;;17.15;14.05;;;;;;;16.76;82.74;99192.03;6121493;23;20033;-81
2021/06/09 01:30:32;;;;;;;16.88;13.77;;;;;;;16.77;82.66;99196.44;6122058;23;20025;-80
2021/06/09 01:32:58;;;;;;;18.95;13.55;;;;;;;16.76;82.78;99194.78;6121876;23;20432;-81
2021/06/09 01:35:24;;;;;;;13.88;12.48;;;;;;;16.77;82.66;99191.81;6121311;23;20022;-79
2021/06/09 01:37:50;;;;;;;14.15;12.65;;;;;;;16.80;82.56;99193.31;6121488;23;20033;-79
2021/06/09 01:40:22;;;;;;;14.48;12.55;;;;;;;16.77;82.66;99202.75;6122841;23;20017;-81
2021/06/09 01:42:49;;;;;;;13.35;11.35;;;;;;;16.78;82.57;99201.72;6122591;23;20026;-79
2021/06/09 01:45:17;;;;;;;12.90;11.35;;;;;;;16.73;82.65;99197.88;6120513;23;20022;-82
2021/06/09 01:47:43;;;;;;;12.35;11.05;;;;;;;16.74;82.56;99194.13;6120435;23;20030;-79
2021/06/09 01:50:11;;;;;;;12.48;11.23;;;;;;;16.70;82.81;99192.81;6123406;23;20021;-79
2021/06/09 01:52:38;;;;;;;12.02;10.82;;;;;;;16.64;83.04;99184.41;6121704;23;20126;-82
2021/06/09 01:55:06;;;;;;;11.50;10.40;;;;;;;16.77;82.73;99193.72;6121678;23;20076;-81
2021/06/09 01:57:33;;;;;;;12.27;11.07;;;;;;;16.83;82.19;99190.19;6121945;23;20026;-80
2021/06/09 02:00:00;;;;;;;12.55;10.60;;;;;;;16.78;82.34;99192.66;6120389;23;20029;-80
2021/06/09 02:02:26;;;;;;;11.75;10.23;;;;;;;16.86;82.08;99197.97;6120674;23;20028;-80
2021/06/09 02:04:52;;;;;;;11.25;10.07;;;;;;;16.75;82.12;99187.63;6120218;23;20518;-80
2021/06/09 02:07:18;;;;;;;11.52;10.23;;;;;;;16.87;81.84;99192.31;6121838;23;20025;-81
2021/06/09 02:09:44;;;;;;;11.02;9.88;;;;;;;16.82;82.17;99186.63;6121826;23;20049;-79
2021/06/09 02:12:10;;;;;;;13.10;10.82;;;;;;;16.85;81.90;99191.66;6096291;23;20452;-80
2021/06/09 02:14:36;;;;;;;11.75;9.35;;;;;;;16.96;81.36;99187.50;6122144;23;20029;-79
2021/06/09 02:17:05;;;;;;;10.35;9.25;;;;;;;17.13;80.96;99187.16;6120663;23;20045;-78
2021/06/09 02:19:31;;;;;;;10.68;9.68;;;;;;;17.21;80.56;99193.25;6120776;23;20631;-80
2021/06/09 02:21:58;;;;;;;10.75;9.65;;;;;;;17.20;80.44;99191.59;6095623;23;20137;-78
2021/06/09 02:24:26;;;;;;;10.75;9.75;;;;;;;17.32;80.31;99191.81;6120790;23;20118;-79
2021/06/09 02:26:53;;;;;;;12.68;10.35;;;;;;;17.32;80.07;99189.09;6120306;23;20052;-79
2021/06/09 02:29:19;;;;;;;10.90;9.85;;;;;;;17.33;79.91;99188.03;6096029;23;20453;-78
2021/06/09 02:31:46;;;;;;;11.25;10.07;;;;;;;17.22;80.14;99184.03;6119972;23;20456;-78
2021/06/09 02:34:14;;;;;;;11.45;9.35;;;;;;;17.22;80.04;99186.78;6096062;23;20024;-78
2021/06/09 02:36:41;;;;;;;10.30;8.98;;;;;;;17.24;79.93;99190.13;6120222;23;20025;-79
2021/06/09 02:39:09;;;;;;;11.20;10.05;;;;;;;17.14;80.37;99194.28;6145052;23;20122;-80
2021/06/09 02:41:35;;;;;;;11.10;10.10;;;;;;;17.09;80.63;99187.56;6121521;23;20030;-81
2021/06/09 02:44:02;;;;;;;11.15;10.05;;;;;;;17.13;80.58;99198.06;6119988;23;20029;-79
2021/06/09 02:46:36;;;;;;;10.75;9.75;;;;;;;17.06;80.63;99201.63;6121687;23;20026;-80
2021/06/09 02:49:03;;;;;;;;;;;;;;;17.05;80.66;99197.22;6124483;23;20244;-83
2021/06/09 02:51:35;;;;;;;10.70;9.60;;;;;;;17.02;80.95;99200.34;6098087;23;19928;-80
2021/06/09 02:54:26;;;;;;;10.70;9.60;;;;;;;16.96;81.06;99198.41;6124190;23;20104;-79
2021/06/09 02:57:24;;;;;;;13.02;10.20;;;;;;;17.00;81.42;99202.44;6122567;23;20068;-80
2021/06/09 02:59:55;;;;;;;11.23;10.18;;;;;;;17.01;81.08;99206.03;6121467;23;20024;-81
2021/06/09 03:02:50;;;;;;;11.95;10.27;;;;;;;16.98;81.23;99214.63;6121804;23;20031;-81
2021/06/09 03:05:28;;;;;;;12.43;10.05;;;;;;;16.97;81.16;99205.59;6096924;23;20057;-82
2021/06/09 03:08:24;;;;;;;11.63;9.80;;;;;;;16.97;81.04;99211.06;6120602;23;20063;-81
2021/06/09 03:11:02;;;;;;;11.25;9.43;;;;;;;16.99;80.71;99221.75;6122019;23;20073;-80
2021/06/09 03:14:14;;;;;;;10.27;9.10;;;;;;;16.85;81.22;99213.50;6073285;23;20456;-80
2021/06/09 03:16:54;;;;;;;10.15;9.18;;;;;;;16.90;80.99;99221.09;6131745;23;20026;-80
2021/06/09 03:19:40;;;;;;;10.83;9.77;;;;;;;16.91;80.90;99232.84;6110174;23;20038;-80
2021/06/09 03:22:14;;;;;;;10.10;9.23;;;;;;;16.86;81.05;99230.75;6123724;23;20036;-80
2021/06/09 03:24:43;;;;;;;10.48;9.35;;;;;;;16.72;81.17;99231.69;6122821;23;20040;-83
2021/06/09 03:27:23;;;;;;;10.57;9.60;;;;;;;16.61;81.61;99224.91;6135857;23;20033;-80
2021/06/09 03:30:24;;;;;;;9.77;8.88;;;;;;;16.62;81.36;99224.69;6122210;23;20022;-80
2021/06/09 03:33:02;;;;;;;9.05;8.20;;;;;;;16.50;81.92;99228.19;6060334;23;20070;-81
2021/06/09 03:35:49;;;;;;;9.40;8.50;;;;;;;16.52;81.96;99229.66;6109914;23;20397;-82
2021/06/09 03:38:23;;;;;;;9.32;8.35;;;;;;;16.50;82.10;99220.84;6073195;23;20125;-81
2021/06/09 03:40:53;;;;;;;8.80;7.90;;;;;;;16.47;82.11;99221.22;6098838;23;20033;-83
2021/06/09 03:43:20;;;;;;;9.77;8.77;;;;;;;16.52;82.11;99218.72;6126386;23;20094;-84
2021/06/09 03:45:49;;;;;;;9.55;8.35;;;;;;;16.53;82.09;99225.06;6127734;23;20018;-79
2021/06/09 03:48:17;;;;;;;9.88;8.88;;;;;;;16.64;81.78;99221.78;6128678;23;20032;-81
2021/06/09 03:50:44;;;;;;;10.65;9.40;;;;;;;16.60;81.80;99217.72;6126452;23;20469;-80
2021/06/09 03:53:11;;;;;;;11.30;9.00;;;;;;;16.64;81.89;99222.59;6128055;23;20022;-80
2021/06/09 03:55:38;;;;;;;10.13;9.13;;;;;;;16.64;81.65;99228.06;6078597;23;20025;-81
2021/06/09 03:58:08;;;;;;;9.48;8.52;;;;;;;16.67;81.58;99221.34;6130005;23;20069;-83
2021/06/09 04:00:34;;;;;;;10.25;8.75;;;;;;;16.68;81.89;99227.66;6137380;23;20017;-82
2021/06/09 04:03:02;;;;;;;11.07;8.38;;;;;;;16.70;81.72;99222.84;6140545;23;20030;-81
2021/06/09 04:05:29;;;;;;;10.40;9.50;;;;;;;16.64;81.74;99225.34;6141247;23;20013;-82
2021/06/09 04:07:58;;;;;;;10.02;9.13;;;;;;;16.64;82.23;99232.69;6139026;23;20018;-80
2021/06/09 04:10:25;;;;;;;10.68;9.18;;;;;;;16.49;82.54;99230.06;6139845;23;20021;-80
2021/06/09 04:12:51;;;;;;;9.90;8.73;;;;;;;16.46;82.52;99224.16;6139808;23;20041;-80
2021/06/09 04:15:19;;;;;;;10.85;9.75;;;;;;;16.56;82.14;99225.50;6128758;23;20101;-81
2021/06/09 04:17:46;;;;;;;9.55;8.63;;;;;;;16.52;82.63;99224.19;6098239;23;20037;-80
2021/06/09 04:20:12;;;;;;;9.73;8.75;;;;;;;16.62;82.29;99211.03;6121763;23;20017;-81
2021/06/09 04:22:38;;;;;;;9.23;8.05;;;;;;;16.63;82.29;99226.34;6122483;23;20120;-81
2021/06/09 04:25:07;;;;;;;11.13;9.30;;;;;;;16.56;82.71;99221.91;6098539;23;20022;-81
2021/06/09 04:27:36;;;;;;;11.18;10.02;;;;;;;16.68;81.93;99219.47;6124032;23;20025;-77
2021/06/09 04:30:03;;;;;;;11.60;9.35;;;;;;;16.72;82.07;99228.94;6124966;23;20117;-81
2021/06/09 04:32:46;;;;;;;12.25;9.52;;;;;;;16.71;82.06;99227.25;6123365;23;20046;-79
2021/06/09 04:35:12;;;;;;;10.27;8.93;;;;;;;16.81;81.69;99223.13;6124739;23;20046;-81
2021/06/09 04:37:38;;;;;;;10.55;9.45;;;;;;;16.84;81.44;99227.34;6123095;23;20105;-80
2021/06/09 04:40:05;;;;;;;11.65;9.43;;;;;;;16.89;81.79;99224.84;6076138;23;20357;-83
2021/06/09 04:42:31;;;;;;;12.70;10.25;;;;;;;16.90;81.37;99221.09;6125361;23;20026;-82
2021/06/09 04:44:57;;;;;;;10.00;9.00;;;;;;;16.94;81.56;99227.84;6125277;23;20389;-80
2021/06/09 04:47:29;;;;;;;10.65;9.63;;;;;;;16.99;81.31;99230.78;6098302;23;20102;-82
2021/06/09 04:49:57;;;;;;;10.13;9.23;;;;;;;17.06;81.11;99226.19;6099897;23;20032;-80
2021/06/09 04:52:22;;;;;;;11.38;9.13;;;;;;;17.08;81.08;99218.66;6126433;23;20022;-82
2021/06/09 04:54:48;;;;;;;12.15;9.77;;;;;;;17.07;81.07;99222.41;6123018;23;20022;-79
2021/06/09 04:57:14;;;;;;;11.05;9.95;;;;;;;17.13;80.93;99223.50;6127122;23;20622;-82
2021/06/09 04:59:40;;;;;;;23.63;10.15;;;;;;;17.09;80.90;99220.34;6101844;23;20057;-82
2021/06/09 05:02:06;;;;;;;13.57;10.43;;;;;;;17.20;80.56;99220.78;6126253;23;20021;-80
2021/06/09 05:04:32;;;;;;;10.23;9.15;;;;;;;17.28;80.42;99226.06;6128946;23;20539;-81
2021/06/09 05:06:58;;;;;;;11.55;9.65;;;;;;;17.36;80.15;99231.34;6128050;23;20029;-83
2021/06/09 05:09:24;;;;;;;9.43;8.52;;;;;;;17.32;80.09;99227.34;6125413;23;20029;-84
2021/06/09 05:11:53;;;;;;;10.35;9.40;;;;;;;17.31;80.38;99228.41;6077084;23;20022;-82
2021/06/09 05:14:26;;;;;;;11.10;9.35;;;;;;;17.41;79.88;99228.03;6125657;23;20022;-81
2021/06/09 05:16:53;;;;;;;11.63;9.07;;;;;;;17.41;80.09;99231.59;6124685;23;20080;-80
2021/06/09 05:19:22;;;;;;;10.93;9.13;;;;;;;17.38;80.24;99234.72;6123877;23;20022;-82
2021/06/09 05:21:51;;;;;;;9.32;8.52;;;;;;;17.39;80.48;99220.00;6098207;23;20128;-80
2021/06/09 05:24:19;;;;;;;9.52;8.63;;;;;;;17.45;80.11;99232.03;6133692;23;20041;-84
2021/06/09 05:26:46;;;;;;;9.23;8.10;;;;;;;17.55;80.27;99236.06;6104476;23;20417;-84
2021/06/09 05:29:14;;;;;;;12.05;8.68;;;;;;;17.63;79.43;99231.44;6105286;23;20017;-83
2021/06/09 05:31:41;;;;;;;10.13;9.23;;;;;;;17.71;79.24;99233.97;6130704;23;20061;-83
2021/06/09 05:34:07;;;;;;;11.95;9.05;;;;;;;17.85;78.62;99235.72;6125810;23;20018;-81
2021/06/09 05:36:33;;;;;;;10.10;9.10;;;;;;;17.86;78.78;99231.06;6108954;23;20021;-82
2021/06/09 05:39:01;;;;;;;9.60;8.60;;;;;;;18.03;78.79;99235.94;6132635;23;20036;-81
2021/06/09 05:41:27;;;;;;;8.48;7.65;;;;;;;18.13;77.89;99231.94;6086204;23;20069;-80
2021/06/09 05:43:53;;;;;;;12.13;8.65;;;;;;;18.11;77.80;99234.03;6129227;23;20024;-81
2021/06/09 05:46:20;;;;;;;10.02;8.50;;;;;;;18.22;77.58;99236.97;6097572;23;20028;-83
2021/06/09 05:48:47;;;;;;;9.65;8.65;;;;;;;18.22;77.48;99236.16;6098907;23;20369;-83
2021/06/09 05:51:15;;;;;;;9.43;8.50;;;;;;;18.23;77.10;99243.28;6124878;23;20058;-82
2021/06/09 05:53:41;;;;;;;9.10;7.97;;;;;;;18.27;76.68;99244.56;6129071;23;20056;-81
2021/06/09 05:56:08;;;;;;;10.88;9.00;;;;;;;18.37;76.91;99241.41;6128143;23;20044;-82
2021/06/09 05:58:34;;;;;;;12.20;8.48;;;;;;;18.25;76.71;99247.50;6125178;23;20452;-82
2021/06/09 06:01:05;;;;;;;9.93;8.48;;;;;;;18.30;76.54;99246.88;6130746;23;20032;-81
2021/06/09 06:03:32;;;;;;;10.65;8.80;;;;;;;18.40;76.43;99238.25;6144599;23;20013;-81
2021/06/09 06:06:00;;;;;;;9.10;8.30;;;;;;;18.55;75.53;99234.22;6131768;23;20081;-82
2021/06/09 06:08:27;;;;;;;10.15;8.82;;;;;;;18.77;75.04;99237.56;6123837;23;20029;-81
2021/06/09 06:11:05;;;;;;;10.95;8.63;;;;;;;18.96;74.26;99232.25;6128147;23;20026;-83
2021/06/09 06:13:31;;;;;;;10.27;9.20;;;;;;;18.92;74.59;99240.06;6131796;23;20021;-83
2021/06/09 06:15:58;;;;;;;10.27;8.20;;;;;;;18.92;74.06;99241.97;6126727;23;20364;-85
2021/06/09 06:18:31;;;;;;;7.78;7.07;;;;;;;18.87;74.13;99241.78;6153684;23;20429;-81
2021/06/09 06:20:57;;;;;;;8.90;7.95;;;;;;;18.83;74.60;99238.63;6098274;23;20021;-82
2021/06/09 06:23:24;;;;;;;12.48;7.43;;;;;;;18.92;74.04;99241.97;6136670;23;20022;-82
2021/06/09 06:25:50;;;;;;;9.27;7.80;;;;;;;18.86;74.29;99249.13;6126963;23;20068;-82
2021/06/09 06:28:16;;;;;;;9.65;8.35;;;;;;;18.79;74.07;99249.16;6123306;23;20120;-82
2021/06/09 06:30:42;;;;;;;11.35;8.48;;;;;;;18.87;74.18;99250.81;6098871;23;20045;-82
2021/06/09 06:33:08;;;;;;;12.57;7.97;;;;;;;19.06;73.81;99242.75;6124635;23;20045;-81
2021/06/09 06:35:35;;;;;;;10.23;8.20;;;;;;;19.09;73.20;99237.69;6098086;23;20021;-82
2021/06/09 06:38:00;;;;;;;9.75;7.72;;;;;;;18.92;73.36;99241.97;6148204;23;20026;-80
2021/06/09 06:40:32;;;;;;;9.45;8.45;;;;;;;19.18;72.97;99249.25;6122587;23;20372;-82
2021/06/09 06:42:58;;;;;;;8.98;8.00;;;;;;;19.33;72.28;99249.81;6099170;23;20026;-83
2021/06/09 06:45:24;;;;;;;10.60;8.23;;;;;;;19.45;71.65;99253.56;6126149;23;20029;-81
2021/06/09 06:47:54;;;;;;;8.90;8.13;;;;;;;19.54;71.15;99256.03;6126543;23;20033;-83
2021/06/09 06:50:23;;;;;;;8.88;8.02;;;;;;;19.70;70.78;99258.28;6126152;23;20018;-80
2021/06/09 06:52:51;;;;;;;8.18;7.38;;;;;;;19.84;70.90;99262.63;6123490;23;20117;-82
2021/06/09 06:55:18;;;;;;;12.32;8.98;;;;;;;19.84;70.37;99256.31;6125654;23;20105;-80
2021/06/09 06:57:45;;;;;;;13.10;8.50;;;;;;;19.80;70.66;99266.88;6124375;23;20047;-83
2021/06/09 07:00:17;;;;;;;11.73;8.63;;;;;;;19.85;70.28;99267.06;6127293;23;20022;-84
2021/06/09 07:02:49;;;;;;;12.57;7.50;;;;;;;20.05;69.55;99271.59;6151653;23;20035;-84
2021/06/09 07:05:17;;;;;;;8.30;7.32;;;;;;;19.83;70.01;99260.97;6129786;23;20416;-83
2021/06/09 07:07:45;;;;;;;7.88;7.15;;;;;;;20.03;69.48;99270.94;6126748;23;20029;-79
2021/06/09 07:10:13;;;;;;;8.77;7.63;;;;;;;19.95;69.85;99264.66;6107480;23;20028;-84
2021/06/09 07:12:44;;;;;;;8.52;7.28;;;;;;;20.03;69.69;99270.94;6135264;23;20073;-85
2021/06/09 07:15:20;;;;;;;9.43;7.22;;;;;;;20.38;68.41;99277.66;6138036;23;20510;-81
2021/06/09 07:17:51;;;;;;;10.57;7.70;;;;;;;20.52;68.50;99270.16;6134559;23;20104;-80
2021/06/09 07:20:21;;;;;;;10.00;6.88;;;;;;;20.61;68.37;99276.22;6133255;23;20075;-82
2021/06/09 07:22:48;;;;;;;10.05;7.22;;;;;;;20.80;67.77;99282.56;6132447;23;20080;-81
2021/06/09 07:25:15;;;;;;;7.32;6.60;;;;;;;20.92;67.58;99276.13;6132773;23;20021;-82
2021/06/09 07:27:43;;;;;;;6.57;6.03;;;;;;;20.88;66.79;99269.41;6133651;23;20085;-83
2021/06/09 07:30:11;;;;;;;6.95;6.22;;;;;;;20.98;67.35;99274.34;6131361;23;20021;-83
2021/06/09 07:32:41;;;;;;;6.78;5.78;;;;;;;21.03;66.67;99270.94;6102922;23;20018;-82
2021/06/09 07:35:09;;;;;;;7.00;6.40;;;;;;;21.74;64.88;99270.25;6128245;23;20022;-83
2021/06/09 07:37:41;;;;;;;9.75;6.20;;;;;;;22.87;62.01;99269.28;6128572;23;20049;-83
2021/06/09 07:40:11;;;;;;;6.70;6.10;;;;;;;23.44;58.87;99273.28;6131924;23;20021;-84
2021/06/09 07:42:41;;;;;;;8.15;5.60;;;;;;;23.55;58.40;99261.38;6110356;23;20079;-82
2021/06/09 07:45:10;;;;;;;14.90;8.20;;;;;;;23.02;59.33;99273.50;6126529;23;20460;-84
2021/06/09 07:47:40;;;;;;;8.48;6.00;;;;;;;23.07;59.57;99265.31;6128278;23;20303;-81
2021/06/09 07:50:08;;;;;;;9.63;5.70;;;;;;;23.04;59.77;99276.88;6103245;23;20021;-81
2021/06/09 07:52:37;;;;;;;7.82;5.88;;;;;;;22.70;61.06;99281.25;6126695;23;20020;-85
2021/06/09 07:55:04;;;;;;;8.32;5.55;;;;;;;22.14;62.02;99273.28;6129288;23;20076;-84
2021/06/09 07:57:32;;;;;;;6.00;5.40;;;;;;;21.96;62.38;99283.50;6128780;23;20017;-82
2021/06/09 07:59:59;;;;;;;8.98;5.65;;;;;;;21.69;63.28;99278.38;6128838;23;20025;-83
2021/06/09 08:02:25;;;;;;;5.93;5.22;;;;;;;21.55;63.41;99274.97;6130999;23;20057;-83
2021/06/09 08:04:52;;;;;;;8.88;5.90;;;;;;;21.48;64.23;99284.38;6130859;23;20033;-82
2021/06/09 08:07:18;;;;;;;7.22;4.90;;;;;;;21.30;64.32;99287.94;6134310;23;20014;-83
2021/06/09 08:09:44;;;;;;;7.07;5.43;;;;;;;21.25;64.73;99290.56;6133163;23;20026;-83
2021/06/09 08:12:11;;;;;;;13.30;6.80;;;;;;;21.40;64.13;99278.13;6134295;23;20020;-83
2021/06/09 08:14:38;;;;;;;5.90;5.38;;;;;;;22.16;61.99;99281.34;6082759;23;20022;-85
2021/06/09 08:17:08;;;;;;;6.63;5.75;;;;;;;23.07;60.24;99282.72;6131607;23;20022;-82
2021/06/09 08:19:34;;;;;;;6.85;5.40;;;;;;;23.64;58.19;99275.63;6131109;23;20028;-83
2021/06/09 08:22:00;;;;;;;6.00;5.40;;;;;;;24.39;56.45;99277.28;6104685;23;20325;-85
2021/06/09 08:24:25;;;;;;;6.35;4.85;;;;;;;24.63;55.74;99286.28;6131437;23;20029;-82
2021/06/09 08:26:54;;;;;;;5.63;5.00;;;;;;;24.20;56.42;99291.34;6129309;23;20017;-84
2021/06/09 08:29:21;;;;;;;5.90;5.30;;;;;;;23.75;56.98;99283.88;6103768;23;20025;-83
2021/06/09 08:31:47;;;;;;;5.85;5.15;;;;;;;23.19;58.17;99274.44;6107890;23;20022;-83
2021/06/09 08:34:13;;;;;;;5.07;4.68;;;;;;;22.86;59.02;99289.66;6131037;23;20018;-84
2021/06/09 08:36:43;;;;;;;6.93;4.80;;;;;;;22.65;59.46;99279.22;6129393;23;20022;-83
2021/06/09 08:39:10;;;;;;;5.95;4.63;;;;;;;22.61;59.39;99289.88;6127731;23;20080;-82
2021/06/09 08:41:39;;;;;;;6.20;4.60;;;;;;;22.77;59.69;99287.50;6111689;23;20002;-83
2021/06/09 08:44:06;;;;;;;9.98;5.60;;;;;;;23.06;59.33;99274.69;6130895;23;20080;-84
2021/06/09 08:46:35;;;;;;;5.28;4.75;;;;;;;23.20;58.60;99292.66;6107451;23;20030;-84
2021/06/09 08:49:02;;;;;;;6.30;4.82;;;;;;;23.51;57.71;99282.25;6109396;23;20018;-82
2021/06/09 08:51:30;;;;;;;8.70;5.10;;;;;;;23.49;57.50;99281.69;6104855;23;20048;-84
2021/06/09 08:53:56;;;;;;;5.80;4.93;;;;;;;23.49;58.15;99289.94;6130844;23;20428;-82
2021/06/09 08:56:23;;;;;;;10.02;5.28;;;;;;;23.13;58.97;99286.44;6132629;23;20065;-83
2021/06/09 08:58:51;;;;;;;11.15;5.47;;;;;;;22.68;60.07;99284.28;6130564;23;20045;-82
2021/06/09 09:01:17;;;;;;;6.30;5.10;;;;;;;22.47;60.44;99282.09;6131703;23;20340;-83
2021/06/09 09:03:46;;;;;;;5.78;5.20;;;;;;;22.72;59.91;99279.94;6128801;23;20032;-82
2021/06/09 09:06:12;;;;;;;6.55;4.95;;;;;;;23.13;58.66;99280.91;6126392;23;20026;-84
2021/06/09 09:08:38;;;;;;;6.30;5.15;;;;;;;23.07;58.80;99270.84;6128590;23;20077;-84
2021/06/09 09:11:04;;;;;;;5.80;4.70;;;;;;;23.07;58.46;99276.34;6129101;23;20165;-83
2021/06/09 09:13:35;;;;;;;9.07;5.07;;;;;;;22.73;59.44;99286.31;6130452;23;20018;-88
2021/06/09 09:16:01;;;;;;;12.38;5.40;;;;;;;22.33;60.37;99285.06;6128050;23;20026;-81
2021/06/09 09:18:59;;;;;;;6.00;4.82;;;;;;;22.60;59.69;99276.38;6130262;23;20018;-83
2021/06/09 09:21:37;;;;;;;9.13;5.22;;;;;;;22.80;59.50;99282.34;6150607;23;20029;-82
2021/06/09 09:24:06;;;;;;;10.07;5.20;;;;;;;22.81;59.56;99281.25;6127759;23;20048;-82
2021/06/09 09:26:34;;;;;;;5.22;4.40;;;;;;;22.70;60.31;99282.09;6101572;23;20025;-81
2021/06/09 09:29:16;;;;;;;5.85;4.40;;;;;;;22.50;60.32;99276.13;6128592;23;20180;-83
2021/06/09 09:31:55;;;;;;;6.03;4.28;;;;;;;22.54;59.90;99288.34;6131813;23;20026;-81
2021/06/09 09:34:38;;;;;;;4.20;3.90;;;;;;;22.32;60.30;99275.13;6131617;23;20153;-83
2021/06/09 09:37:09;;;;;;;6.50;4.35;;;;;;;22.42;60.59;99268.22;6128458;23;20022;-84
2021/06/09 09:39:38;;;;;;;6.53;4.45;;;;;;;22.49;60.21;99268.94;6127645;23;20033;-84
2021/06/09 09:42:33;;;;;;;5.05;4.00;;;;;;;22.51;60.77;99266.75;6125848;23;20081;-82
2021/06/09 09:45:28;;;;;;;5.60;4.20;;;;;;;22.30;60.99;99271.75;6151562;23;20018;-83
2021/06/09 09:48:19;;;;;;;13.15;4.68;;;;;;;22.07;61.57;99266.19;6151442;23;20030;-80
2021/06/09 09:50:48;;;;;;;4.70;4.22;;;;;;;21.88;62.21;99263.50;6129319;23;20075;-83
2021/06/09 09:53:22;;;;;;;6.70;4.30;;;;;;;21.84;62.08;99261.44;6129910;23;20045;-85
2021/06/09 09:56:10;;;;;;;4.78;4.22;;;;;;;21.85;61.99;99258.44;6127948;23;20100;-82
2021/06/09 09:58:52;;;;;;;6.10;4.30;;;;;;;22.09;61.25;99264.88;6130064;23;20121;-84
2021/06/09 10:01:20;;;;;;;6.95;4.40;;;;;;;21.99;61.60;99258.25;6150920;23;20025;-82
2021/06/09 10:03:52;;;;;;;5.22;4.15;;;;;;;21.82;62.07;99258.91;6127318;23;20121;-82
2021/06/09 10:06:27;;;;;;;5.18;3.90;;;;;;;21.75;62.45;99252.66;6125049;23;20022;-82
2021/06/09 10:08:57;;;;;;;4.70;4.15;;;;;;;21.71;62.37;99256.97;6128439;23;20014;-83
2021/06/09 10:11:26;;;;;;;4.53;4.20;;;;;;;21.88;61.73;99263.50;6127495;23;20029;-84
2021/06/09 10:13:52;;;;;;;5.30;4.18;;;;;;;22.06;61.24;99259.00;6153494;23;20022;-84
2021/06/09 10:16:22;;;;;;;6.55;3.80;;;;;;;22.17;60.84;99255.47;6103039;23;20044;-85
2021/06/09 10:19:09;;;;;;;5.63;3.97;;;;;;;22.25;60.70;99252.38;6126453;23;20450;-84
2021/06/09 10:21:46;;;;;;;4.07;3.25;;;;;;;21.73;61.02;99251.25;6130607;23;20704;-84
2021/06/09 10:24:12;;;;;;;6.07;3.20;;;;;;;21.67;61.09;99253.84;6105026;23;20049;-85
2021/06/09 10:26:40;;;;;;;3.30;3.03;;;;;;;21.61;61.23;99251.16;6130750;23;20025;-84
2021/06/09 10:29:06;;;;;;;3.08;2.83;;;;;;;21.70;61.24;99249.78;6128509;23;20017;-84
2021/06/09 10:31:40;;;;;;;3.40;3.10;;;;;;;21.90;60.47;99244.84;6129462;23;20028;-84
2021/06/09 10:34:06;;;;;;;4.40;2.90;;;;;;;21.97;59.74;99243.88;6162206;23;20053;-83
2021/06/09 10:36:40;;;;;;;3.90;3.15;;;;;;;22.13;59.50;99243.22;6134730;23;20013;-83
2021/06/09 10:39:15;;;;;;;3.65;3.03;;;;;;;22.12;59.71;99236.00;6110133;23;20029;-82
2021/06/09 10:42:15;;;;;;;3.25;3.00;;;;;;;22.11;59.80;99231.59;6114213;23;20014;-84
2021/06/09 10:44:45;;;;;;;4.38;3.28;;;;;;;22.13;59.51;99233.03;6125616;23;20025;-82
2021/06/09 10:47:29;;;;;;;3.90;3.03;;;;;;;22.05;60.12;99229.81;6108124;23;20021;-84
2021/06/09 10:50:08;;;;;;;5.43;3.30;;;;;;;21.91;60.58;99237.44;6139151;23;20192;-85
2021/06/09 10:52:34;;;;;;;3.80;2.92;;;;;;;21.76;60.28;99242.53;6135241;23;20436;-82
2021/06/09 10:55:05;;;;;;;5.35;3.15;;;;;;;21.69;60.24;99250.88;6135051;23;20022;-83
2021/06/09 10:57:32;;;;;;;5.70;2.95;;;;;;;21.65;60.58;99253.25;6137521;23;20464;-83
2021/06/09 10:59:58;;;;;;;5.80;3.42;;;;;;;21.78;59.71;99243.94;6080126;23;20093;-83
2021/06/09 11:02:25;;;;;;;5.65;3.00;;;;;;;21.83;59.21;99238.59;6136962;23;20061;-82
2021/06/09 11:04:59;;;;;;;2.88;2.60;;;;;;;21.86;59.33;99243.59;6109667;23;20018;-84
2021/06/09 11:07:39;;;;;;;3.50;3.00;;;;;;;21.99;59.50;99252.75;6137203;23;20024;-83
2021/06/09 11:10:27;;;;;;;6.18;2.85;;;;;;;22.29;59.16;99248.06;6134253;23;20452;-84
2021/06/09 11:12:56;;;;;;;3.70;3.10;;;;;;;22.41;58.85;99247.22;6155764;23;20017;-83
2021/06/09 11:15:27;;;;;;;3.70;3.15;;;;;;;22.63;58.31;99248.31;6130605;23;20060;-84
2021/06/09 11:17:57;;;;;;;5.25;2.72;;;;;;;22.62;57.75;99257.66;6129236;23;20094;-83
2021/06/09 11:20:33;;;;;;;4.05;3.30;;;;;;;22.81;57.82;99245.41;6133797;23;20049;-81
2021/06/09 11:23:02;;;;;;;3.20;2.90;;;;;;;22.79;57.33;99236.56;6132244;23;20046;-83
2021/06/09 11:25:44;;;;;;;4.32;2.95;;;;;;;23.05;56.45;99228.91;6132266;23;20022;-84
2021/06/09 11:28:13;;;;;;;4.55;3.03;;;;;;;23.23;55.98;99223.22;6158456;23;20437;-85
2021/06/09 11:30:54;;;;;;;4.47;3.38;;;;;;;23.47;55.57;99229.47;6132622;23;20114;-82
2021/06/09 11:33:35;;;;;;;4.13;3.30;;;;;;;23.58;55.42;99239.66;6130999;23;20161;-83
2021/06/09 11:36:12;;;;;;;5.53;3.10;;;;;;;23.35;55.65;99229.53;6133190;23;20017;-85
2021/06/09 11:38:52;;;;;;;4.15;3.25;;;;;;;23.15;57.00;99229.13;6129238;23;20475;-82
2021/06/09 11:41:21;;;;;;;11.07;3.55;;;;;;;23.33;57.00;99231.72;6129886;23;20014;-81